Time;durP1;ratioP1;P1;durP2;ratioP2;P2;SDS_P1;SDS_P2;PMS_P1;PMS_P2;Temp;Humidity;BMP_temperature;BMP_pressure;BME280_temperature;BME280_humidity;BME280_pressure;Samples;Min_cycle;Max_cycle;Signal;HPM_P1;HPM_P2
2023/08/03 00:00:39;;;;;;;0.10;0.10;;;15.60;99.90;;;;;;5099577;28;20185;-96
2023/08/03 00:03:08;;;;;;;0.00;0.00;;;15.50;99.90;;;;;;5091632;28;20182;-96
2023/08/03 00:05:33;;;;;;;0.10;0.10;;;15.50;99.90;;;;;;5084768;28;20186;-96
2023/08/03 00:07:59;;;;;;;0.10;0.10;;;15.50;99.90;;;;;;5099756;28;20474;-96
2023/08/03 00:10:24;;;;;;;0.30;0.30;;;15.40;99.90;;;;;;5100765;28;20740;-96
2023/08/03 00:12:51;;;;;;;0.10;0.10;;;15.40;99.90;;;;;;5099638;28;20194;-96
2023/08/03 00:15:17;;;;;;;0.10;0.10;;;15.30;99.90;;;;;;5084677;28;20472;-95
2023/08/03 00:17:43;;;;;;;0.20;0.20;;;15.40;99.90;;;;;;5102697;28;20470;-94
2023/08/03 00:20:10;;;;;;;0.10;0.10;;;15.30;99.90;;;;;;5099347;28;20447;-96
2023/08/03 00:22:36;;;;;;;0.10;0.10;;;15.30;99.90;;;;;;5092095;28;20454;-96
2023/08/03 00:25:03;;;;;;;0.10;0.10;;;15.30;99.90;;;;;;5100693;28;20473;-96
2023/08/03 00:27:29;;;;;;;0.30;0.30;;;15.20;99.90;;;;;;5095645;28;20546;-94
2023/08/03 00:29:55;;;;;;;0.13;0.13;;;15.20;99.90;;;;;;5093425;22;20517;-94
2023/08/03 00:32:21;;;;;;;0.10;0.10;;;15.10;99.90;;;;;;5027036;28;20446;-96
2023/08/03 00:34:46;;;;;;;0.10;0.10;;;15.10;99.90;;;;;;5051282;28;20668;-95
2023/08/03 00:37:13;;;;;;;0.10;0.10;;;15.10;99.90;;;;;;5037085;28;20492;-96
2023/08/03 00:39:38;;;;;;;0.10;0.10;;;15.00;99.90;;;;;;5043620;28;20184;-95
2023/08/03 00:42:05;;;;;;;0.10;0.10;;;15.00;99.90;;;;;;5041808;28;20473;-96
2023/08/03 00:46:59;;;;;;;0.30;0.30;;;15.00;99.90;;;;;;5108989;22;20509;-96
2023/08/03 00:49:27;;;;;;;0.10;0.10;;;15.00;99.90;;;;;;5060900;28;20460;-96
2023/08/03 00:51:57;;;;;;;0.10;0.10;;;14.90;99.90;;;;;;5062233;28;20506;-96
2023/08/03 00:54:23;;;;;;;0.20;0.20;;;14.90;99.90;;;;;;5058435;28;20437;-95
2023/08/03 00:56:48;;;;;;;0.20;0.20;;;14.90;99.90;;;;;;5056401;28;20964;-95
2023/08/03 00:59:14;;;;;;;0.20;0.20;;;14.80;99.90;;;;;;5053600;28;20453;-96
2023/08/03 01:01:41;;;;;;;0.10;0.10;;;14.80;99.90;;;;;;5051227;28;20187;-96
2023/08/03 01:04:06;;;;;;;0.10;0.10;;;14.80;99.90;;;;;;5061949;28;20571;-96
2023/08/03 01:06:32;;;;;;;0.10;0.10;;;14.80;99.90;;;;;;5056216;28;20441;-95
2023/08/03 01:08:59;;;;;;;0.10;0.10;;;14.80;99.90;;;;;;5054156;28;20197;-95
2023/08/03 01:11:25;;;;;;;0.10;0.10;;;14.70;99.90;;;;;;5055102;28;20222;-95
2023/08/03 01:13:51;;;;;;;0.40;0.40;;;14.70;99.90;;;;;;5055302;28;20469;-94
2023/08/03 01:16:17;;;;;;;0.20;0.20;;;14.70;99.90;;;;;;5047039;28;20890;-94
2023/08/03 01:18:42;;;;;;;0.10;0.10;;;14.70;99.90;;;;;;5050534;28;20186;-95
2023/08/03 01:21:11;;;;;;;0.10;0.10;;;14.70;99.90;;;;;;5050952;28;20182;-96
2023/08/03 01:23:36;;;;;;;0.10;0.10;;;14.80;99.90;;;;;;5048633;28;20647;-96
2023/08/03 01:26:02;;;;;;;0.10;0.10;;;14.80;99.90;;;;;;5050917;28;20488;-95
2023/08/03 01:28:27;;;;;;;0.10;0.10;;;14.80;99.90;;;;;;5052724;28;20265;-95
2023/08/03 01:30:53;;;;;;;0.10;0.10;;;14.80;99.90;;;;;;5054829;28;20233;-95
2023/08/03 01:33:19;;;;;;;0.10;0.10;;;14.80;99.90;;;;;;5052369;28;20183;-95
2023/08/03 01:35:44;;;;;;;0.13;0.13;;;14.70;99.90;;;;;;5052637;28;20186;-95
2023/08/03 01:38:12;;;;;;;0.10;0.10;;;14.80;99.90;;;;;;5051120;28;20191;-96
2023/08/03 01:40:38;;;;;;;0.10;0.10;;;14.80;99.90;;;;;;5054712;28;20183;-93
2023/08/03 01:43:03;;;;;;;0.10;0.10;;;14.80;99.90;;;;;;5052338;28;20445;-96
2023/08/03 01:45:29;;;;;;;0.10;0.10;;;14.80;99.90;;;;;;5053452;28;20230;-95
2023/08/03 01:47:55;;;;;;;0.10;0.10;;;14.80;99.90;;;;;;5052348;28;20538;-94
2023/08/03 01:50:20;;;;;;;0.10;0.10;;;14.70;99.90;;;;;;5036871;28;20237;-94
2023/08/03 01:52:48;;;;;;;0.10;0.10;;;14.70;99.90;;;;;;5050133;28;20273;-95
2023/08/03 01:55:13;;;;;;;0.10;0.10;;;14.80;99.90;;;;;;5053296;28;20175;-95
2023/08/03 01:57:39;;;;;;;0.10;0.10;;;14.80;99.90;;;;;;5062124;28;20448;-95
2023/08/03 02:00:05;;;;;;;0.10;0.10;;;14.80;99.90;;;;;;5052946;28;20274;-95
2023/08/03 02:02:31;;;;;;;0.10;0.10;;;14.80;99.90;;;;;;5053401;28;20193;-94
2023/08/03 02:04:56;;;;;;;0.10;0.10;;;14.90;99.90;;;;;;5052018;28;20437;-96
2023/08/03 02:07:44;;;;;;;0.10;0.10;;;14.80;99.90;;;;;;5050961;28;20183;-94
2023/08/03 02:10:11;;;;;;;0.10;0.10;;;14.80;99.90;;;;;;5049602;28;20260;-95
2023/08/03 02:12:37;;;;;;;0.10;0.10;;;14.80;99.90;;;;;;5056180;28;20948;-96
2023/08/03 02:15:06;;;;;;;0.10;0.10;;;14.80;99.90;;;;;;5057209;28;20520;-96
2023/08/03 02:17:32;;;;;;;0.10;0.10;;;14.80;99.90;;;;;;5043710;28;20182;-95
2023/08/03 02:19:58;;;;;;;0.10;0.10;;;14.80;99.90;;;;;;5058990;28;20444;-96
2023/08/03 02:22:23;;;;;;;0.10;0.10;;;14.80;99.90;;;;;;5050500;28;20490;-95
2023/08/03 02:24:49;;;;;;;0.10;0.10;;;14.80;99.90;;;;;;5039218;28;20477;-94
2023/08/03 02:27:14;;;;;;;0.10;0.10;;;14.80;99.90;;;;;;5056591;28;20236;-95
2023/08/03 02:29:40;;;;;;;0.13;0.13;;;14.80;99.90;;;;;;5059478;28;20190;-94
2023/08/03 02:32:06;;;;;;;0.10;0.10;;;14.80;99.90;;;;;;5059191;28;20193;-94
2023/08/03 02:34:32;;;;;;;0.10;0.10;;;14.80;99.90;;;;;;5062444;28;20194;-95
2023/08/03 02:36:57;;;;;;;0.10;0.10;;;14.80;99.90;;;;;;5054293;28;20268;-95
2023/08/03 02:39:23;;;;;;;0.10;0.10;;;14.80;99.90;;;;;;5049593;28;20188;-95
2023/08/03 02:41:54;;;;;;;0.10;0.10;;;14.90;99.90;;;;;;5061433;28;20543;-93
2023/08/03 02:44:19;;;;;;;0.10;0.10;;;14.80;99.90;;;;;;5074615;22;20226;-96
2023/08/03 02:46:45;;;;;;;0.10;0.10;;;14.80;99.90;;;;;;5058400;28;20446;-96
2023/08/03 02:49:10;;;;;;;0.10;0.10;;;14.80;99.90;;;;;;5205419;22;20233;-96
2023/08/03 02:51:36;;;;;;;0.10;0.10;;;14.90;99.90;;;;;;5121538;28;20211;-90
2023/08/03 03:04:20;;;;;;;0.10;0.10;;;14.90;99.90;;;;;;5128551;23;20490;-96
2023/08/03 03:09:32;;;;;;;0.10;0.10;;;14.90;99.90;;;;;;5060585;23;20248;-88
2023/08/03 03:11:57;;;;;;;0.10;0.10;;;14.90;99.90;;;;;;5016228;28;20487;-96
2023/08/03 03:14:23;;;;;;;0.07;0.07;;;14.90;99.90;;;;;;5005355;28;20174;-96
2023/08/03 03:16:49;;;;;;;0.10;0.10;;;14.90;99.90;;;;;;5015519;28;20170;-96
2023/08/03 03:19:14;;;;;;;0.10;0.10;;;14.90;99.90;;;;;;5032395;23;20704;-96
2023/08/03 03:21:40;;;;;;;0.10;0.10;;;14.90;99.90;;;;;;5131881;23;20219;-88
2023/08/03 03:24:06;;;;;;;0.10;0.10;;;14.90;99.90;;;;;;5041002;28;20180;-86
2023/08/03 03:26:31;;;;;;;0.10;0.10;;;14.90;99.90;;;;;;5041495;28;20177;-86
2023/08/03 03:28:57;;;;;;;0.10;0.10;;;14.90;99.90;;;;;;5133247;23;20297;-96
2023/08/03 03:31:23;;;;;;;0.10;0.10;;;14.90;99.90;;;;;;5309740;22;1091885;-96
2023/08/03 03:33:48;;;;;;;0.10;0.10;;;14.90;99.90;;;;;;5040695;28;20923;-87
2023/08/03 03:36:14;;;;;;;0.10;0.10;;;15.00;99.90;;;;;;5058080;22;20237;-96
2023/08/03 03:47:23;;;;;;;0.10;0.10;;;15.00;99.90;;;;;;5059473;23;20524;-96
2023/08/03 03:52:21;;;;;;;0.20;0.20;;;15.00;99.90;;;;;;5012564;28;20225;-96
2023/08/03 03:57:12;;;;;;;0.10;0.10;;;15.00;99.90;;;;;;5353627;22;20326;-85
2023/08/03 03:59:38;;;;;;;0.10;0.10;;;15.00;99.90;;;;;;5039388;28;20174;-94
2023/08/03 04:02:03;;;;;;;0.10;0.10;;;15.00;99.90;;;;;;5071079;23;20244;-96
2023/08/03 04:09:40;;;;;;;0.10;0.10;;;15.00;99.90;;;;;;5082283;23;20490;-85
2023/08/03 04:12:06;;;;;;;0.10;0.10;;;15.10;99.90;;;;;;5062468;23;20470;-89
2023/08/03 04:14:33;;;;;;;0.10;0.10;;;15.10;99.90;;;;;;5040156;22;20250;-96
2023/08/03 04:17:02;;;;;;;0.10;0.10;;;15.10;99.90;;;;;;5044932;22;20216;-96
2023/08/03 04:22:22;;;;;;;0.10;0.10;;;15.10;99.90;;;;;;5299176;23;20497;-90
2023/08/03 04:24:48;;;;;;;0.10;0.10;;;15.20;99.90;;;;;;5646803;22;20455;-96
2023/08/03 04:32:42;;;;;;;0.10;0.10;;;15.20;99.90;;;;;;5376175;22;21787;-96
2023/08/03 04:35:09;;;;;;;0.10;0.10;;;15.20;99.90;;;;;;5090331;28;20436;-96
2023/08/03 04:40:22;;;;;;;0.10;0.10;;;15.30;99.90;;;;;;5447178;22;20503;-94
2023/08/03 04:47:44;;;;;;;0.10;0.10;;;15.30;99.90;;;;;;5057324;28;20458;-81
2023/08/03 04:53:31;;;;;;;0.10;0.10;;;15.30;99.90;;;;;;5317369;22;20235;-86
2023/08/03 04:55:57;;;;;;;0.10;0.10;;;15.40;99.90;;;;;;5090957;28;20459;-98
2023/08/03 04:58:23;;;;;;;0.10;0.10;;;15.40;99.90;;;;;;5100962;28;20551;-81
2023/08/03 05:00:48;;;;;;;0.10;0.10;;;15.40;99.90;;;;;;5094827;28;20186;-96
2023/08/03 05:03:14;;;;;;;0.00;0.00;;;15.40;99.90;;;;;;5100421;22;20277;-92
2023/08/03 05:05:39;;;;;;;0.10;0.10;;;15.40;99.90;;;;;;5104981;28;20196;-84
2023/08/03 05:14:49;;;;;;;0.10;0.10;;;15.50;99.90;;;;;;5114677;23;20466;-88
2023/08/03 05:17:15;;;;;;;0.10;0.10;;;15.40;99.90;;;;;;5098655;28;20397;-90
2023/08/03 05:22:16;;;;;;;0.10;0.10;;;15.50;99.90;;;;;;6010230;22;20247;-86
2023/08/03 05:30:39;;;;;;;0.10;0.10;;;15.70;99.90;;;;;;5182639;22;20482;-96
2023/08/03 05:33:07;;;;;;;0.10;0.10;;;15.80;99.90;;;;;;5101088;22;20519;-96
2023/08/03 05:35:33;;;;;;;0.10;0.10;;;16.00;99.90;;;;;;5091221;28;20178;-96
2023/08/03 05:37:59;;;;;;;0.00;0.00;;;16.10;99.90;;;;;;5079224;28;20522;-96
2023/08/03 05:45:43;;;;;;;0.10;0.10;;;16.30;99.90;;;;;;5138447;23;20490;-95
2023/08/03 05:48:16;;;;;;;0.10;0.10;;;16.20;99.90;;;;;;5061835;28;20436;-96
2023/08/03 05:50:44;;;;;;;0.00;0.00;;;16.30;99.90;;;;;;5078447;28;20556;-96
2023/08/03 05:53:11;;;;;;;0.00;0.00;;;16.10;99.90;;;;;;5057179;28;20546;-96
2023/08/03 05:55:38;;;;;;;0.10;0.10;;;16.10;99.90;;;;;;5067483;28;21000;-96
2023/08/03 05:58:10;;;;;;;0.00;0.00;;;16.10;99.90;;;;;;5094151;28;20440;-95
2023/08/03 06:00:36;;;;;;;0.00;0.00;;;16.10;99.90;;;;;;5080444;28;20458;-96
2023/08/03 06:03:03;;;;;;;0.00;0.00;;;16.10;99.90;;;;;;5059748;28;20440;-96
2023/08/03 06:05:47;;;;;;;0.10;0.10;;;16.10;99.90;;;;;;5059957;28;20449;-96
2023/08/03 06:08:24;;;;;;;0.10;0.10;;;16.10;99.90;;;;;;5073049;28;20447;-96
2023/08/03 06:10:51;;;;;;;0.07;0.07;;;16.10;99.90;;;;;;5071148;28;20483;-96
2023/08/03 06:13:19;;;;;;;0.30;0.30;;;16.20;99.90;;;;;;5095536;28;20458;-96
2023/08/03 06:15:46;;;;;;;0.10;0.10;;;16.30;99.90;;;;;;5073258;28;20448;-96
2023/08/03 06:18:14;;;;;;;0.10;0.10;;;16.50;99.90;;;;;;5065241;23;20503;-96
2023/08/03 06:20:46;;;;;;;0.10;0.10;;;16.60;99.90;;;;;;5063767;28;20435;-96
2023/08/03 06:23:23;;;;;;;0.10;0.10;;;16.80;99.90;;;;;;5092994;23;20474;-96
2023/08/03 06:25:50;;;;;;;0.10;0.10;;;16.80;99.90;;;;;;5043829;28;20514;-96
2023/08/03 06:28:21;;;;;;;0.10;0.10;;;16.80;99.90;;;;;;5037952;28;20438;-96
2023/08/03 06:30:48;;;;;;;0.10;0.10;;;16.80;99.90;;;;;;5017500;28;20463;-91
2023/08/03 06:33:21;;;;;;;0.10;0.10;;;16.60;99.90;;;;;;5029386;28;20442;-96
2023/08/03 06:35:47;;;;;;;0.10;0.10;;;16.60;99.90;;;;;;5026802;28;20442;-95
2023/08/03 06:38:16;;;;;;;0.10;0.10;;;16.60;99.90;;;;;;5031885;28;20921;-96
2023/08/03 06:40:42;;;;;;;0.10;0.10;;;16.60;99.90;;;;;;5032530;28;20461;-96
2023/08/03 06:43:09;;;;;;;0.10;0.10;;;16.70;99.90;;;;;;5233288;23;20514;-96
2023/08/03 06:45:35;;;;;;;0.10;0.10;;;16.70;99.90;;;;;;5119621;22;20509;-95
2023/08/03 06:50:48;;;;;;;0.10;0.10;;;16.70;99.90;;;;;;5160711;22;20524;-96
2023/08/03 06:53:15;;;;;;;0.10;0.10;;;16.70;99.90;;;;;;5059191;23;20446;-96
2023/08/03 06:55:40;;;;;;;0.00;0.00;;;16.70;99.90;;;;;;5068364;28;20211;-96
2023/08/03 06:58:05;;;;;;;0.10;0.10;;;16.80;99.90;;;;;;5061800;28;20503;-96
2023/08/03 07:00:31;;;;;;;0.00;0.00;;;16.70;99.90;;;;;;5056936;28;20193;-95
2023/08/03 07:02:57;;;;;;;0.10;0.10;;;16.70;99.90;;;;;;5061877;28;20182;-96
2023/08/03 07:05:22;;;;;;;0.20;0.20;;;16.70;99.90;;;;;;5063154;28;20197;-95
2023/08/03 07:07:48;;;;;;;0.00;0.00;;;16.80;99.90;;;;;;5060585;28;20247;-96
2023/08/03 07:10:13;;;;;;;0.10;0.10;;;16.90;99.90;;;;;;5070176;28;20218;-96
2023/08/03 07:12:39;;;;;;;0.10;0.10;;;17.00;99.90;;;;;;5050362;28;20674;-96
2023/08/03 07:15:05;;;;;;;0.07;0.07;;;17.00;99.90;;;;;;5038554;28;20179;-96
2023/08/03 07:17:31;;;;;;;0.00;0.00;;;17.00;99.90;;;;;;5066344;28;20190;-96
2023/08/03 07:19:57;;;;;;;0.00;0.00;;;17.10;99.90;;;;;;5047990;28;20962;-95
2023/08/03 07:22:22;;;;;;;0.00;0.00;;;17.00;99.90;;;;;;5044314;28;20445;-93
2023/08/03 07:24:48;;;;;;;0.10;0.10;;;17.00;99.90;;;;;;5044826;28;20264;-91
2023/08/03 07:27:14;;;;;;;0.10;0.10;;;17.10;99.90;;;;;;5046070;28;20214;-92
2023/08/03 07:29:41;;;;;;;0.00;0.00;;;17.00;99.90;;;;;;5038194;28;20229;-91
2023/08/03 07:32:07;;;;;;;0.00;0.00;;;17.00;99.90;;;;;;5047055;28;20457;-92
2023/08/03 07:34:32;;;;;;;0.10;0.10;;;17.00;99.90;;;;;;5048288;28;20442;-92
2023/08/03 07:36:58;;;;;;;0.00;0.00;;;17.00;99.90;;;;;;5038945;28;20184;-90
2023/08/03 07:39:24;;;;;;;0.00;0.00;;;17.00;99.90;;;;;;5047157;28;20530;-96
2023/08/03 07:41:49;;;;;;;0.00;0.00;;;16.90;99.90;;;;;;5049509;28;20491;-90
2023/08/03 07:44:16;;;;;;;0.10;0.10;;;16.90;99.90;;;;;;5054358;28;20179;-94
2023/08/03 07:46:42;;;;;;;0.00;0.00;;;17.00;99.90;;;;;;5020081;28;20187;-93
2023/08/03 07:49:07;;;;;;;0.00;0.00;;;17.00;99.90;;;;;;5046835;28;20532;-93
2023/08/03 07:51:33;;;;;;;0.00;0.00;;;17.00;99.90;;;;;;5045276;28;20576;-93
2023/08/03 07:53:58;;;;;;;0.00;0.00;;;17.00;99.90;;;;;;5054104;28;20297;-93
2023/08/03 07:56:24;;;;;;;0.00;0.00;;;17.10;99.90;;;;;;5047485;28;20185;-93
2023/08/03 07:58:50;;;;;;;0.00;0.00;;;17.20;99.90;;;;;;5030243;28;20175;-94
2023/08/03 08:01:17;;;;;;;0.00;0.00;;;17.30;99.90;;;;;;5017728;28;20637;-94
2023/08/03 08:03:43;;;;;;;0.00;0.00;;;17.50;99.90;;;;;;5049236;28;20476;-92
2023/08/03 08:06:16;;;;;;;0.10;0.10;;;17.50;99.90;;;;;;5022797;28;20474;-93
2023/08/03 08:08:42;;;;;;;0.00;0.00;;;17.50;99.90;;;;;;5024659;28;20206;-93
2023/08/03 08:11:09;;;;;;;0.00;0.00;;;17.70;99.90;;;;;;5044069;28;20534;-93
2023/08/03 08:13:34;;;;;;;0.00;0.00;;;17.70;99.90;;;;;;5029206;28;20443;-91
2023/08/03 08:16:08;;;;;;;0.00;0.00;;;17.70;99.90;;;;;;5017951;28;20996;-94
2023/08/03 08:18:34;;;;;;;0.00;0.00;;;17.80;99.90;;;;;;5027000;28;20278;-93
2023/08/03 08:21:05;;;;;;;0.00;0.00;;;17.90;99.90;;;;;;5048604;28;20453;-94
2023/08/03 08:23:31;;;;;;;0.00;0.00;;;17.90;99.90;;;;;;5044413;28;20441;-93
2023/08/03 08:25:57;;;;;;;0.00;0.00;;;18.10;99.90;;;;;;5035666;28;21189;-93
2023/08/03 08:28:23;;;;;;;0.00;0.00;;;18.20;99.90;;;;;;5027534;28;20192;-89
2023/08/03 08:30:49;;;;;;;0.10;0.10;;;18.80;99.90;;;;;;5025808;28;20752;-91
2023/08/03 08:33:18;;;;;;;0.00;0.00;;;19.50;99.90;;;;;;5008973;28;20434;-93
2023/08/03 08:35:45;;;;;;;0.00;0.00;;;19.30;99.90;;;;;;5026520;28;21562;-95
2023/08/03 08:38:20;;;;;;;0.10;0.10;;;19.00;99.90;;;;;;5019796;28;21056;-90
2023/08/03 08:40:45;;;;;;;0.00;0.00;;;18.80;99.90;;;;;;5031168;28;20952;-91
2023/08/03 08:43:11;;;;;;;0.00;0.00;;;18.80;99.90;;;;;;5032050;28;20455;-90
2023/08/03 08:45:38;;;;;;;0.10;0.10;;;18.80;99.90;;;;;;5032088;28;20231;-90
2023/08/03 08:48:05;;;;;;;0.10;0.10;;;18.80;99.90;;;;;;5040314;28;20186;-90
2023/08/03 08:50:31;;;;;;;0.10;0.10;;;19.50;99.90;;;;;;5046195;28;21083;-89
2023/08/03 08:52:58;;;;;;;0.07;0.00;;;19.70;99.90;;;;;;5019369;28;20976;-89
2023/08/03 08:55:26;;;;;;;0.00;0.00;;;19.80;99.90;;;;;;5041120;28;20568;-90
2023/08/03 08:57:52;;;;;;;0.00;0.00;;;20.00;99.90;;;;;;5050890;28;20429;-92
2023/08/03 09:00:19;;;;;;;0.00;0.00;;;20.10;99.90;;;;;;5041577;28;21118;-90
2023/08/03 09:02:45;;;;;;;0.00;0.00;;;19.80;99.90;;;;;;5044825;28;20457;-89
2023/08/03 09:05:14;;;;;;;0.10;0.10;;;19.60;99.90;;;;;;5039055;28;20437;-94
2023/08/03 09:07:40;;;;;;;0.00;0.00;;;20.20;99.90;;;;;;5048880;28;20444;-90
2023/08/03 09:10:06;;;;;;;0.00;0.00;;;20.10;99.90;;;;;;5049938;28;20485;-90
2023/08/03 09:12:32;;;;;;;0.00;0.00;;;20.10;99.90;;;;;;5046594;28;20501;-88
2023/08/03 09:14:58;;;;;;;0.10;0.00;;;20.20;99.90;;;;;;5048833;28;20187;-89
2023/08/03 09:17:24;;;;;;;0.10;0.00;;;20.10;99.90;;;;;;5040224;28;20830;-88
2023/08/03 09:19:54;;;;;;;0.10;0.10;;;20.40;99.90;;;;;;5046987;28;20194;-90
2023/08/03 09:22:21;;;;;;;0.10;0.10;;;21.00;99.90;;;;;;5048028;28;20440;-91
2023/08/03 09:25:05;;;;;;;0.10;0.10;;;21.30;99.90;;;;;;5016961;28;20457;-91
2023/08/03 09:27:31;;;;;;;0.00;0.00;;;21.40;99.90;;;;;;5040593;28;20873;-89
2023/08/03 09:30:00;;;;;;;0.07;0.07;;;21.50;99.90;;;;;;5046247;28;20449;-91
2023/08/03 09:32:34;;;;;;;0.00;0.00;;;21.60;99.90;;;;;;5044454;28;20190;-89
2023/08/03 09:35:01;;;;;;;0.10;0.10;;;21.50;99.90;;;;;;5034591;28;20461;-91
2023/08/03 09:37:36;;;;;;;0.00;0.00;;;21.10;99.90;;;;;;5044548;28;20440;-92
2023/08/03 09:40:05;;;;;;;0.00;0.00;;;20.70;99.90;;;;;;5042821;28;20447;-91
2023/08/03 09:42:31;;;;;;;0.00;0.00;;;20.40;99.90;;;;;;5033854;28;20460;-89
2023/08/03 09:45:03;;;;;;;0.00;0.00;;;20.00;99.90;;;;;;5044058;28;20438;-93
2023/08/03 09:47:32;;;;;;;0.00;0.00;;;19.90;99.90;;;;;;5032284;28;20430;-92
2023/08/03 09:49:58;;;;;;;0.00;0.00;;;19.80;99.90;;;;;;5039643;28;20967;-90
2023/08/03 09:52:29;;;;;;;0.00;0.00;;;20.10;99.90;;;;;;5046610;28;20449;-91
2023/08/03 09:55:05;;;;;;;0.00;0.00;;;20.30;99.90;;;;;;5046399;28;20264;-89
2023/08/03 09:57:38;;;;;;;0.00;0.00;;;20.30;99.90;;;;;;5035375;28;20552;-92
2023/08/03 10:00:06;;;;;;;0.00;0.00;;;20.10;99.90;;;;;;5036939;28;20442;-89
2023/08/03 10:02:39;;;;;;;0.07;0.07;;;19.90;99.90;;;;;;5039220;28;20542;-92
2023/08/03 10:05:07;;;;;;;0.00;0.00;;;19.40;99.90;;;;;;5036724;28;20834;-93
2023/08/03 10:07:45;;;;;;;0.10;0.10;;;19.10;99.90;;;;;;5045593;28;20447;-92
2023/08/03 10:10:13;;;;;;;0.00;0.00;;;19.00;99.90;;;;;;5043890;28;20470;-93
2023/08/03 10:12:46;;;;;;;0.00;0.00;;;18.90;99.90;;;;;;5032947;28;20441;-92
2023/08/03 10:15:16;;;;;;;0.00;0.00;;;18.70;99.90;;;;;;5040873;28;20805;-92
2023/08/03 10:17:44;;;;;;;0.10;0.10;;;18.60;99.90;;;;;;5036367;28;20438;-89
2023/08/03 10:20:10;;;;;;;0.10;0.10;;;18.60;99.90;;;;;;5042413;28;20433;-89
2023/08/03 10:22:35;;;;;;;0.07;0.07;;;18.70;99.90;;;;;;5049510;28;20448;-92
2023/08/03 10:25:17;;;;;;;0.07;0.07;;;18.50;99.90;;;;;;5041782;28;20453;-90
2023/08/03 10:28:13;;;;;;;0.07;0.00;;;18.40;99.90;;;;;;5026163;28;20560;-94
2023/08/03 10:31:03;;;;;;;0.00;0.00;;;18.30;99.90;;;;;;5043515;28;20480;-93
2023/08/03 10:33:47;;;;;;;0.10;0.10;;;18.20;99.90;;;;;;5055842;28;20940;-93
2023/08/03 10:36:28;;;;;;;0.00;0.00;;;18.10;99.90;;;;;;5051570;28;20442;-93
2023/08/03 10:39:15;;;;;;;0.00;0.00;;;18.10;99.90;;;;;;5051291;28;21237;-92
2023/08/03 10:41:47;;;;;;;0.10;0.10;;;18.00;99.90;;;;;;5029746;28;20949;-95
2023/08/03 10:44:13;;;;;;;0.10;0.10;;;18.00;99.90;;;;;;5041419;28;20873;-93
2023/08/03 10:46:53;;;;;;;0.10;0.10;;;18.00;99.90;;;;;;5040320;28;20443;-95
2023/08/03 10:49:22;;;;;;;0.20;0.20;;;18.20;99.90;;;;;;5044992;28;20975;-93
2023/08/03 10:51:53;;;;;;;0.10;0.10;;;18.30;99.90;;;;;;5045310;28;20472;-96
2023/08/03 10:54:29;;;;;;;0.00;0.00;;;18.30;99.90;;;;;;5048544;28;21039;-95
2023/08/03 10:57:28;;;;;;;0.10;0.10;;;18.60;99.90;;;;;;5032960;28;20434;-90
2023/08/03 10:59:59;;;;;;;0.00;0.00;;;19.00;99.90;;;;;;5039381;28;20460;-93
2023/08/03 11:02:30;;;;;;;0.10;0.10;;;20.00;99.90;;;;;;5046530;28;20813;-92
2023/08/03 11:05:00;;;;;;;0.00;0.00;;;20.10;99.90;;;;;;5033801;28;20453;-88
2023/08/03 11:07:33;;;;;;;0.10;0.10;;;19.70;99.90;;;;;;5042697;28;20485;-89
2023/08/03 11:10:00;;;;;;;0.10;0.10;;;19.30;99.90;;;;;;5030702;28;20451;-89
2023/08/03 11:12:27;;;;;;;0.00;0.00;;;19.20;99.90;;;;;;5043109;28;20497;-89
2023/08/03 11:14:55;;;;;;;0.10;0.10;;;19.20;99.90;;;;;;5043067;28;20449;-90
2023/08/03 11:17:27;;;;;;;0.10;0.10;;;19.00;99.90;;;;;;5030257;28;20462;-89
2023/08/03 11:19:53;;;;;;;0.07;0.07;;;18.90;99.90;;;;;;5044068;28;21213;-89
2023/08/03 11:22:23;;;;;;;0.00;0.00;;;18.80;99.90;;;;;;5030657;28;20449;-90
2023/08/03 11:24:54;;;;;;;0.10;0.10;;;18.80;99.90;;;;;;5038293;28;20442;-90
2023/08/03 11:27:20;;;;;;;0.00;0.00;;;18.90;99.90;;;;;;5044084;28;20871;-91
2023/08/03 11:29:46;;;;;;;0.10;0.10;;;18.90;99.90;;;;;;5036819;28;20454;-93
2023/08/03 11:32:20;;;;;;;0.10;0.10;;;19.00;99.90;;;;;;5047216;28;20512;-92
2023/08/03 11:34:45;;;;;;;0.00;0.00;;;18.90;99.90;;;;;;5030804;28;20196;-92
2023/08/03 11:37:13;;;;;;;0.10;0.00;;;18.80;99.90;;;;;;5050645;28;20476;-91
2023/08/03 11:39:38;;;;;;;0.00;0.00;;;18.90;99.90;;;;;;5036271;28;20191;-92
2023/08/03 11:42:06;;;;;;;0.00;0.00;;;18.90;99.90;;;;;;5037626;28;20445;-90
2023/08/03 11:44:44;;;;;;;0.10;0.10;;;18.80;99.90;;;;;;5051406;28;20195;-93
2023/08/03 11:47:09;;;;;;;0.10;0.10;;;18.90;99.90;;;;;;5032785;28;20952;-89
2023/08/03 11:49:35;;;;;;;0.10;0.10;;;19.10;99.90;;;;;;5026849;28;20450;-91
2023/08/03 11:52:01;;;;;;;0.00;0.00;;;19.40;99.90;;;;;;5043546;28;20258;-90
2023/08/03 11:54:37;;;;;;;0.00;0.00;;;19.60;99.90;;;;;;5051424;28;20238;-89
2023/08/03 11:59:49;;;;;;;0.10;0.10;;;19.90;99.90;;;;;;5044098;28;20448;-92
2023/08/03 12:02:14;;;;;;;0.10;0.00;;;19.80;99.90;;;;;;5051668;28;20842;-89
2023/08/03 12:04:41;;;;;;;0.10;0.00;;;19.80;99.90;;;;;;5049091;28;20455;-91
2023/08/03 12:07:07;;;;;;;0.10;0.00;;;19.80;99.90;;;;;;5040400;28;20256;-88
2023/08/03 12:09:40;;;;;;;0.00;0.00;;;19.80;99.90;;;;;;5027870;28;20435;-94
2023/08/03 12:12:10;;;;;;;0.00;0.00;;;20.00;99.90;;;;;;5040015;28;20222;-88
2023/08/03 12:14:36;;;;;;;0.07;0.00;;;20.00;99.90;;;;;;5044648;28;20437;-92
2023/08/03 12:17:02;;;;;;;0.00;0.00;;;19.70;99.90;;;;;;5030467;28;20501;-88
2023/08/03 12:19:32;;;;;;;0.00;0.00;;;19.80;99.90;;;;;;5049727;28;20473;-88
2023/08/03 12:22:01;;;;;;;0.10;0.00;;;19.90;99.90;;;;;;5040482;28;20454;-90
2023/08/03 12:24:27;;;;;;;0.07;0.00;;;20.00;99.90;;;;;;5040204;28;20445;-91
2023/08/03 12:26:53;;;;;;;0.10;0.00;;;19.90;99.90;;;;;;5038260;28;20440;-89
2023/08/03 12:29:18;;;;;;;0.10;0.10;;;19.90;99.90;;;;;;5043598;28;20310;-94
2023/08/03 12:31:44;;;;;;;0.10;0.00;;;19.90;99.90;;;;;;5039977;28;20934;-94
2023/08/03 12:34:09;;;;;;;0.10;0.00;;;19.80;99.90;;;;;;5049753;28;20182;-91
2023/08/03 12:36:35;;;;;;;0.10;0.00;;;19.60;99.90;;;;;;5032165;28;20566;-89
2023/08/03 12:39:00;;;;;;;0.10;0.10;;;19.50;99.90;;;;;;5037122;28;20193;-90
2023/08/03 12:41:26;;;;;;;0.10;0.00;;;19.40;99.90;;;;;;5029090;28;20606;-89
2023/08/03 12:43:51;;;;;;;0.10;0.00;;;19.10;99.90;;;;;;5030701;28;20195;-87
2023/08/03 12:46:17;;;;;;;0.10;0.00;;;19.10;99.90;;;;;;5035385;28;20906;-89
2023/08/03 12:48:44;;;;;;;0.10;0.10;;;19.00;99.90;;;;;;5046453;28;20186;-90
2023/08/03 12:51:10;;;;;;;0.10;0.10;;;19.00;99.90;;;;;;5034059;28;20307;-88
2023/08/03 12:53:37;;;;;;;0.10;0.10;;;19.00;99.90;;;;;;5044061;28;20477;-89
2023/08/03 12:56:03;;;;;;;0.10;0.10;;;18.90;99.90;;;;;;5042838;28;20235;-92
2023/08/03 12:58:29;;;;;;;0.10;0.10;;;18.70;99.90;;;;;;5031148;28;20437;-89
2023/08/03 13:00:57;;;;;;;0.10;0.10;;;18.70;99.90;;;;;;5035742;28;20176;-89
2023/08/03 13:03:23;;;;;;;0.10;0.10;;;18.80;99.90;;;;;;5044859;28;20211;-88
2023/08/03 13:05:48;;;;;;;0.10;0.10;;;18.70;99.90;;;;;;5039843;28;20480;-90
2023/08/03 13:08:16;;;;;;;0.10;0.10;;;18.50;99.90;;;;;;5036809;28;20236;-90
2023/08/03 13:10:44;;;;;;;0.10;0.10;;;18.40;99.90;;;;;;5010531;28;20231;-91
2023/08/03 13:13:09;;;;;;;0.10;0.10;;;18.30;99.90;;;;;;5029951;28;20461;-91
2023/08/03 13:15:34;;;;;;;0.10;0.10;;;18.20;99.90;;;;;;5039080;28;21237;-93
2023/08/03 13:18:00;;;;;;;0.10;0.10;;;18.10;99.90;;;;;;5043537;28;20958;-92
2023/08/03 13:20:25;;;;;;;0.10;0.10;;;18.10;99.90;;;;;;5033504;28;20191;-89
2023/08/03 13:22:51;;;;;;;0.10;0.10;;;18.20;99.90;;;;;;5045471;28;20198;-89
2023/08/03 13:25:16;;;;;;;0.10;0.00;;;18.10;99.90;;;;;;5044911;28;20192;-89
2023/08/03 13:27:42;;;;;;;0.10;0.00;;;18.10;99.90;;;;;;5029758;28;20270;-90
2023/08/03 13:30:08;;;;;;;0.10;0.00;;;18.00;99.90;;;;;;5043060;28;20282;-89
2023/08/03 13:32:34;;;;;;;0.10;0.10;;;18.10;99.90;;;;;;5048671;28;20197;-93
2023/08/03 13:34:59;;;;;;;0.10;0.00;;;18.10;99.90;;;;;;5044966;28;20522;-92
2023/08/03 13:37:24;;;;;;;0.07;0.00;;;18.70;99.90;;;;;;5033726;28;20616;-95
2023/08/03 13:39:50;;;;;;;0.10;0.10;;;19.20;99.90;;;;;;5024692;28;20188;-92
2023/08/03 13:42:15;;;;;;;0.10;0.00;;;20.30;99.90;;;;;;5044095;28;20184;-92
2023/08/03 13:44:41;;;;;;;0.00;0.00;;;21.10;99.90;;;;;;5050531;28;20941;-93
2023/08/03 13:47:07;;;;;;;0.00;0.00;;;20.60;99.90;;;;;;5039148;28;20195;-93
2023/08/03 13:49:35;;;;;;;0.00;0.00;;;20.10;99.90;;;;;;5045936;28;20789;-95
2023/08/03 13:52:01;;;;;;;0.10;0.10;;;19.70;99.90;;;;;;5055143;28;20210;-94
2023/08/03 13:54:27;;;;;;;0.10;0.00;;;19.40;99.90;;;;;;5055069;28;20579;-95
2023/08/03 13:56:53;;;;;;;0.10;0.00;;;19.20;99.90;;;;;;5051700;28;20441;-96
2023/08/03 13:59:23;;;;;;;0.10;0.00;;;19.10;99.90;;;;;;5048835;28;21028;-96
2023/08/03 14:05:12;;;;;;;0.00;0.00;;;19.10;99.90;;;;;;5229198;22;20528;-96
2023/08/03 14:07:37;;;;;;;0.10;0.00;;;19.80;99.90;;;;;;5059533;28;20508;-96
2023/08/03 14:10:08;;;;;;;0.10;0.00;;;20.10;99.90;;;;;;5072959;28;20189;-96
2023/08/03 14:12:35;;;;;;;0.10;0.10;;;20.00;99.90;;;;;;5085585;28;20169;-96